AirNav   ProFlight Series 2 Aviation Headset
 
 668 users online  

7IL8 Cody Port RLA Airport
Harding, Illinois, USA

GOING TO HARDING?


FAA INFORMATION EFFECTIVE 18 JUNE 2020

Location

FAA Identifier: 7IL8
Lat/Long: 41-31-08.1120N 088-50-15.2790W
41-31.135200N 088-50.254650W
41.5189200,-88.8375775
(estimated)
Elevation: 668 ft. / 204 m (estimated)
Variation: 00E (1985)
From city: 1 mile E of HARDING, IL
Time zone: UTC -5 (UTC -6 during Standard Time)
Zip code: 60518

Airport Operations

Airport use: Private use. Permission required prior to landing
Activation date: 10/1953
Control tower: no
ARTCC: CHICAGO CENTER
FSS: KANKAKEE FLIGHT SERVICE STATION
Attendance: IREG
Wind indicator: yes, WIND SOCK
Segmented circle: no

Airport Communications

WX AWOS-3 at VYS (17 nm SW): 120.025 (815-223-8442)
WX AWOS-3 at C09 (20 nm E): 118.175 (815-941-1815)

Nearby radio navigation aids

VOR radial/distance  VOR name  Freq  Var
JOTr264/23.4JOLIET VOR/DME112.3002E
DPAr222/31.2DUPAGE VOR/DME108.4002E

Airport Services

Fuel available: 80
Airframe service: NONE
Powerplant service: NONE

Runway Information

Runway N/S

Dimensions: 2500 x 100 ft. / 762 x 30 m
Surface: turf
RUNWAY N  RUNWAY S
Traffic pattern: leftleft

Airport Ownership and Management from official FAA records

Ownership: Privately-owned
Owner: GARY CODY
1672 NORTH 40TH RD
EARLVILLE, IL 60518-6103
Phone (815) 826-0563
Manager: GARY CODY
1672 NORTH 40TH RD
EARLVILLE, IL 60518-0103
Phone (815) 826-0563

Additional Remarks

FOR CD CTC CHICAGO ARTCC AT 630-906-8921.

Instrument Procedures

There are no published instrument procedures at 7IL8.

Some nearby airports with instrument procedures:

KVYS - Illinois Valley Regional Airport-Walter A Duncan Field (17 nm SW)
C09 - Morris Municipal Airport-James R. Washburn Field (20 nm E)
KARR - Aurora Municipal Airport (22 nm NE)
KRPJ - Rochelle Municipal Airport-Koritz Field (25 nm NW)
KDKB - De Kalb Taylor Municipal Airport (26 nm N)
 
Loc | Ops | Rwys | IFR | FBO | Links
Com | Nav | Svcs | Stats | Notes
Area around 7IL8 (Cody Port RLA Airport)
 
Road maps at: MapQuest Bing Google
 
Aerial photo
No photo
 
Sectional chart

 
Airport distance calculator
Flying to Cody Port RLA Airport? Find the distance to fly.

From to 7IL8

Sunrise and sunset
Times for 11-Jul-2020
 Local
(UTC-5)
 Zulu
(UTC)
Morning civil twilight05:0010:00
Sunrise05:3310:33
Sunset20:2901:29
Evening civil twilight21:0202:02

Current date and time
Zulu (UTC)  11-Jul-2020 12:24:28
Local (UTC-5)  11-Jul-2020 07:24:28
 
METAR
KVYS 
17nm SW 
111155Z AUTO 00000KT 10SM CLR 21/19 A2994 RMK AO2 T02110192 10211 20182
KC09 
20nm E 
111200Z AUTO 28004KT 10SM CLR 20/19 A2993 RMK AO2
KARR 
22nm NE 
111152Z 27005KT 9SM CLR 19/18 A2993 RMK AO2 SLP129 T01940183 10194 20161 50007 $
KRPJ 
24nm NW 
111155Z AUTO 00000KT 10SM CLR 18/18 A2995 RMK AO2 T01820182 10188 20156
KDKB 
26nm N 
111155Z AUTO 27005KT 10SM CLR 21/19 A2994 RMK AO2 70002 T02050188 10205 20173
KJOT 
30nm E 
111155Z AUTO 27004KT 10SM CLR 22/18 A2993 RMK AO2 T02160184 10221 20182
KLOT 
34nm E 
111155Z AUTO 00000KT 10SM CLR 21/19 A2992 RMK AO2 T02060187 10210 20183
TAF
KDPA 
36nm NE 
111120Z 1112/1212 29007KT P6SM FEW250 FM111500 29009KT P6SM SCT050 BKN100 FM112200 25008KT P6SM SCT050 BKN080 TEMPO 1200/1204 VRB15G30KT 3SM TSRA BKN035CB FM120400 VRB05KT P6SM VCSH SCT025 BKN035 PROB30 1204/1210 6SM -SHRA BKN025
KRFD 
43nm N 
111120Z 1112/1212 VRB04KT P6SM FEW080 SCT250 FM111400 26007KT P6SM SCT045 BKN100 FM111800 25009KT P6SM SCT045 BKN080 TEMPO 1122/1202 VRB15G30KT 3SM TSRA BKN035CB FM120200 30005KT P6SM VCSH SCT025 BKN035 PROB30 1202/1208 6SM -SHRA BKN025
NOTAMs
Click for the latest NOTAMs
NOTAMs are issued by the DoD/FAA and will open in a separate window not controlled by AirNav.

 

 
 

Would you like to see your business listed on this page?

 If your business provides an interesting product or service to pilots, flight crews, aircraft, or users of the Cody Port RLA Airport, you should consider listing it here.  To start the listing process, click on the button below
 
Add a business
 

Other Pages about Cody Port RLA Airport

Update a link
 
Copyright © AirNav, LLC. All rights reserved. Privacy Policy  Contact